sensor_id;sensor_type;location;lat;lon;timestamp;pressure;altitude;pressure_sealevel;temperature;humidity
25238;BME280;13185;50.872;5.306;2023-01-25T00:00:41;103360.66;;;1.27;94.22
25238;BME280;13185;50.872;5.306;2023-01-25T00:03:07;103359.78;;;1.26;94.39
25238;BME280;13185;50.872;5.306;2023-01-25T00:05:32;103358.00;;;1.25;94.17
25238;BME280;13185;50.872;5.306;2023-01-25T00:07:58;103358.81;;;1.23;94.14
25238;BME280;13185;50.872;5.306;2023-01-25T00:10:23;103356.16;;;1.21;94.24
25238;BME280;13185;50.872;5.306;2023-01-25T00:12:48;103344.75;;;1.24;94.36
25238;BME280;13185;50.872;5.306;2023-01-25T00:15:14;103350.03;;;1.24;94.20
25238;BME280;13185;50.872;5.306;2023-01-25T00:17:39;103336.81;;;1.24;94.19
25238;BME280;13185;50.872;5.306;2023-01-25T00:20:05;103339.44;;;1.22;94.00
25238;BME280;13185;50.872;5.306;2023-01-25T00:22:31;103340.34;;;1.24;94.06
25238;BME280;13185;50.872;5.306;2023-01-25T00:24:57;103336.84;;;1.25;94.07
25238;BME280;13185;50.872;5.306;2023-01-25T00:27:22;103328.94;;;1.27;94.15
25238;BME280;13185;50.872;5.306;2023-01-25T00:29:48;103321.00;;;1.27;94.30
25238;BME280;13185;50.872;5.306;2023-01-25T00:34:44;103325.44;;;1.29;94.24
25238;BME280;13185;50.872;5.306;2023-01-25T00:39:43;103321.91;;;1.27;94.35
25238;BME280;13185;50.872;5.306;2023-01-25T00:42:10;103318.34;;;1.25;94.46
25238;BME280;13185;50.872;5.306;2023-01-25T00:44:37;103329.72;;;1.20;94.44
25238;BME280;13185;50.872;5.306;2023-01-25T00:47:03;103314.72;;;1.17;94.65
25238;BME280;13185;50.872;5.306;2023-01-25T00:49:30;103324.41;;;1.17;94.77
25238;BME280;13185;50.872;5.306;2023-01-25T00:51:56;103322.56;;;1.14;94.71
25238;BME280;13185;50.872;5.306;2023-01-25T00:54:23;103325.28;;;1.15;94.98
25238;BME280;13185;50.872;5.306;2023-01-25T00:56:49;103314.72;;;1.19;95.04
25238;BME280;13185;50.872;5.306;2023-01-25T00:59:17;103320.91;;;1.19;94.96
25238;BME280;13185;50.872;5.306;2023-01-25T01:01:42;103314.75;;;1.22;94.94
25238;BME280;13185;50.872;5.306;2023-01-25T01:04:09;103316.53;;;1.23;95.02
25238;BME280;13185;50.872;5.306;2023-01-25T01:06:38;103317.38;;;1.20;94.87
25238;BME280;13185;50.872;5.306;2023-01-25T01:09:06;103309.47;;;1.20;95.00
25238;BME280;13185;50.872;5.306;2023-01-25T01:11:32;103318.25;;;1.19;94.98
25238;BME280;13185;50.872;5.306;2023-01-25T01:13:58;103311.19;;;1.18;95.01
25238;BME280;13185;50.872;5.306;2023-01-25T01:16:24;103312.97;;;1.18;95.34
25238;BME280;13185;50.872;5.306;2023-01-25T01:18:51;103303.28;;;1.20;95.35
25238;BME280;13185;50.872;5.306;2023-01-25T01:21:17;103304.13;;;1.17;95.31
25238;BME280;13185;50.872;5.306;2023-01-25T01:23:42;103308.53;;;1.17;95.33
25238;BME280;13185;50.872;5.306;2023-01-25T01:26:11;103305.00;;;1.16;95.16
25238;BME280;13185;50.872;5.306;2023-01-25T01:28:37;103293.56;;;1.15;95.31
25238;BME280;13185;50.872;5.306;2023-01-25T01:31:06;103297.94;;;1.15;95.29
25238;BME280;13185;50.872;5.306;2023-01-25T01:33:35;103297.09;;;1.18;95.42
25238;BME280;13185;50.872;5.306;2023-01-25T01:36:12;103297.94;;;1.15;95.29
25238;BME280;13185;50.872;5.306;2023-01-25T01:38:38;103287.31;;;1.13;95.54
25238;BME280;13185;50.872;5.306;2023-01-25T01:41:04;103288.22;;;1.14;95.39
25238;BME280;13185;50.872;5.306;2023-01-25T01:43:30;103291.78;;;1.16;95.67
25238;BME280;13185;50.872;5.306;2023-01-25T01:45:59;103293.56;;;1.17;95.67
25238;BME280;13185;50.872;5.306;2023-01-25T01:48:39;103301.50;;;1.19;95.73
25238;BME280;13185;50.872;5.306;2023-01-25T01:53:44;103299.72;;;1.16;95.71
25238;BME280;13185;50.872;5.306;2023-01-25T01:56:14;103297.97;;;1.17;95.79
25238;BME280;13185;50.872;5.306;2023-01-25T01:58:42;103300.59;;;1.17;95.87
25238;BME280;13185;50.872;5.306;2023-01-25T02:01:09;103300.59;;;1.15;95.99
25238;BME280;13185;50.872;5.306;2023-01-25T02:03:35;103301.47;;;1.15;96.03
25238;BME280;13185;50.872;5.306;2023-01-25T02:06:02;103297.88;;;1.12;95.82
25238;BME280;13185;50.872;5.306;2023-01-25T02:08:32;103301.41;;;1.12;96.07
25238;BME280;13185;50.872;5.306;2023-01-25T02:10:59;103303.16;;;1.12;96.05
25238;BME280;13185;50.872;5.306;2023-01-25T02:13:26;103309.34;;;1.12;95.99
25238;BME280;13185;50.872;5.306;2023-01-25T02:15:52;103296.09;;;1.09;96.18
25238;BME280;13185;50.872;5.306;2023-01-25T02:18:22;103297.84;;;1.09;96.26
25238;BME280;13185;50.872;5.306;2023-01-25T02:20:52;103297.88;;;1.10;96.24
25238;BME280;13185;50.872;5.306;2023-01-25T02:26:04;103297.91;;;1.13;96.25
25238;BME280;13185;50.872;5.306;2023-01-25T02:31:09;103301.44;;;1.14;96.10
25238;BME280;13185;50.872;5.306;2023-01-25T02:33:35;103299.66;;;1.14;96.22
25238;BME280;13185;50.872;5.306;2023-01-25T02:38:32;103297.97;;;1.17;96.21
25238;BME280;13185;50.872;5.306;2023-01-25T02:41:04;103291.78;;;1.16;96.36
25238;BME280;13185;50.872;5.306;2023-01-25T02:43:32;103290.03;;;1.15;96.41
25238;BME280;13185;50.872;5.306;2023-01-25T02:48:45;103284.66;;;1.10;96.59
25238;BME280;13185;50.872;5.306;2023-01-25T02:51:10;103285.53;;;1.11;96.43
25238;BME280;13185;50.872;5.306;2023-01-25T02:53:37;103282.03;;;1.12;96.50
25238;BME280;13185;50.872;5.306;2023-01-25T02:56:03;103281.16;;;1.13;96.58
25238;BME280;13185;50.872;5.306;2023-01-25T02:58:29;103276.75;;;1.12;96.31
25238;BME280;13185;50.872;5.306;2023-01-25T03:00:55;103278.50;;;1.13;96.44
25238;BME280;13185;50.872;5.306;2023-01-25T03:03:22;103281.16;;;1.13;96.32
25238;BME280;13185;50.872;5.306;2023-01-25T03:05:47;103269.69;;;1.12;96.23
25238;BME280;13185;50.872;5.306;2023-01-25T03:08:13;103283.81;;;1.13;96.18
25238;BME280;13185;50.872;5.306;2023-01-25T03:10:39;103281.16;;;1.13;96.25
25238;BME280;13185;50.872;5.306;2023-01-25T03:13:05;103275.84;;;1.10;96.02
25238;BME280;13185;50.872;5.306;2023-01-25T03:15:30;103269.66;;;1.08;96.17
25238;BME280;13185;50.872;5.306;2023-01-25T03:17:56;103279.34;;;1.09;96.34
25238;BME280;13185;50.872;5.306;2023-01-25T03:20:22;103280.22;;;1.08;96.36
25238;BME280;13185;50.872;5.306;2023-01-25T03:22:47;103274.06;;;1.07;96.43
25238;BME280;13185;50.872;5.306;2023-01-25T03:25:13;103267.00;;;1.06;96.28
25238;BME280;13185;50.872;5.306;2023-01-25T03:27:49;103266.13;;;1.07;96.58
25238;BME280;13185;50.872;5.306;2023-01-25T03:30:14;103274.91;;;1.05;96.73
25238;BME280;13185;50.872;5.306;2023-01-25T03:32:40;103273.16;;;1.05;96.56
25238;BME280;13185;50.872;5.306;2023-01-25T03:35:09;103267.81;;;1.04;96.61
25238;BME280;13185;50.872;5.306;2023-01-25T03:37:35;103272.19;;;0.99;96.62
25238;BME280;13185;50.872;5.306;2023-01-25T03:40:02;103273.03;;;0.98;96.71
25238;BME280;13185;50.872;5.306;2023-01-25T03:42:29;103268.66;;;0.98;97.02
25238;BME280;13185;50.872;5.306;2023-01-25T03:44:56;103258.97;;;1.00;96.93
25238;BME280;13185;50.872;5.306;2023-01-25T03:47:22;103258.97;;;1.00;97.11
25238;BME280;13185;50.872;5.306;2023-01-25T03:49:47;103270.41;;;0.99;97.19
25238;BME280;13185;50.872;5.306;2023-01-25T03:52:16;103267.78;;;0.99;97.24
25238;BME280;13185;50.872;5.306;2023-01-25T03:54:42;103257.22;;;0.99;97.02
25238;BME280;13185;50.872;5.306;2023-01-25T03:57:09;103263.38;;;0.98;96.93
25238;BME280;13185;50.872;5.306;2023-01-25T03:59:46;103262.50;;;0.99;96.89
25238;BME280;13185;50.872;5.306;2023-01-25T04:02:11;103264.25;;;1.00;97.02
25238;BME280;13185;50.872;5.306;2023-01-25T04:04:41;103257.22;;;1.02;97.26
25238;BME280;13185;50.872;5.306;2023-01-25T04:07:07;103258.09;;;1.00;97.01
25238;BME280;13185;50.872;5.306;2023-01-25T04:09:35;103255.47;;;1.01;97.10
25238;BME280;13185;50.872;5.306;2023-01-25T04:12:00;103252.81;;;1.00;97.07
25238;BME280;13185;50.872;5.306;2023-01-25T04:14:26;103253.72;;;1.02;97.30
25238;BME280;13185;50.872;5.306;2023-01-25T04:16:57;103251.94;;;1.01;97.42
25238;BME280;13185;50.872;5.306;2023-01-25T04:19:23;103251.03;;;0.97;97.10
25238;BME280;13185;50.872;5.306;2023-01-25T04:21:49;103248.38;;;0.96;97.16
25238;BME280;13185;50.872;5.306;2023-01-25T04:24:16;103246.53;;;0.92;97.12
25238;BME280;13185;50.872;5.306;2023-01-25T04:26:42;103242.94;;;0.85;97.26
25238;BME280;13185;50.872;5.306;2023-01-25T04:29:09;103249.97;;;0.84;97.59
25238;BME280;13185;50.872;5.306;2023-01-25T04:31:37;103243.81;;;0.84;97.65
25238;BME280;13185;50.872;5.306;2023-01-25T04:34:02;103242.06;;;0.84;97.56
25238;BME280;13185;50.872;5.306;2023-01-25T04:36:28;103246.47;;;0.87;97.48
25238;BME280;13185;50.872;5.306;2023-01-25T04:38:54;103238.56;;;0.87;97.45
25238;BME280;13185;50.872;5.306;2023-01-25T04:41:20;103228.88;;;0.88;97.51
25238;BME280;13185;50.872;5.306;2023-01-25T04:43:45;103226.25;;;0.89;97.54
25238;BME280;13185;50.872;5.306;2023-01-25T04:46:13;103226.19;;;0.84;97.68
25238;BME280;13185;50.872;5.306;2023-01-25T04:48:39;103224.38;;;0.82;97.96
25238;BME280;13185;50.872;5.306;2023-01-25T04:51:06;103225.25;;;0.79;98.04
25238;BME280;13185;50.872;5.306;2023-01-25T04:53:34;103223.44;;;0.75;98.23
25238;BME280;13185;50.872;5.306;2023-01-25T04:56:00;103217.25;;;0.73;98.19
25238;BME280;13185;50.872;5.306;2023-01-25T04:58:30;103220.78;;;0.74;98.25
25238;BME280;13185;50.872;5.306;2023-01-25T05:01:02;103224.25;;;0.71;98.32
25238;BME280;13185;50.872;5.306;2023-01-25T05:03:28;103213.69;;;0.73;98.33
25238;BME280;13185;50.872;5.306;2023-01-25T05:05:54;103214.59;;;0.73;98.51
25238;BME280;13185;50.872;5.306;2023-01-25T05:08:22;103212.81;;;0.72;98.48
25238;BME280;13185;50.872;5.306;2023-01-25T05:10:51;103215.50;;;0.75;98.31
25238;BME280;13185;50.872;5.306;2023-01-25T05:13:37;103219.06;;;0.77;98.51
25238;BME280;13185;50.872;5.306;2023-01-25T05:16:10;103216.41;;;0.76;98.43
25238;BME280;13185;50.872;5.306;2023-01-25T05:18:36;103216.34;;;0.73;98.70
25238;BME280;13185;50.872;5.306;2023-01-25T05:21:02;103218.09;;;0.72;98.59
25238;BME280;13185;50.872;5.306;2023-01-25T05:23:28;103211.09;;;0.74;98.52
25238;BME280;13185;50.872;5.306;2023-01-25T05:25:54;103203.16;;;0.74;98.45
25238;BME280;13185;50.872;5.306;2023-01-25T05:28:39;103204.94;;;0.74;98.44
25238;BME280;13185;50.872;5.306;2023-01-25T05:31:28;103203.16;;;0.74;98.35
25238;BME280;13185;50.872;5.306;2023-01-25T05:33:54;103202.28;;;0.74;98.37
25238;BME280;13185;50.872;5.306;2023-01-25T05:36:19;103197.00;;;0.74;98.52
25238;BME280;13185;50.872;5.306;2023-01-25T05:38:45;103196.13;;;0.75;98.28
25238;BME280;13185;50.872;5.306;2023-01-25T05:41:12;103198.81;;;0.78;98.67
25238;BME280;13185;50.872;5.306;2023-01-25T05:43:40;103196.19;;;0.79;98.69
25238;BME280;13185;50.872;5.306;2023-01-25T05:46:07;103203.22;;;0.79;98.69
25238;BME280;13185;50.872;5.306;2023-01-25T05:48:33;103194.38;;;0.77;98.68
25238;BME280;13185;50.872;5.306;2023-01-25T05:50:58;103197.91;;;0.77;98.63
25238;BME280;13185;50.872;5.306;2023-01-25T05:53:27;103195.25;;;0.76;98.59
25238;BME280;13185;50.872;5.306;2023-01-25T05:55:53;103197.88;;;0.74;98.58
25238;BME280;13185;50.872;5.306;2023-01-25T05:58:19;103193.50;;;0.75;98.44
25238;BME280;13185;50.872;5.306;2023-01-25T06:00:45;103191.72;;;0.74;98.56
25238;BME280;13185;50.872;5.306;2023-01-25T06:03:18;103187.28;;;0.73;98.62
25238;BME280;13185;50.872;5.306;2023-01-25T06:05:44;103189.03;;;0.72;98.80
25238;BME280;13185;50.872;5.306;2023-01-25T06:08:09;103190.78;;;0.72;98.81
25238;BME280;13185;50.872;5.306;2023-01-25T06:10:47;103190.78;;;0.72;99.13
25238;BME280;13185;50.872;5.306;2023-01-25T06:13:13;103186.38;;;0.71;99.06
25238;BME280;13185;50.872;5.306;2023-01-25T06:15:40;103189.03;;;0.72;98.98
25238;BME280;13185;50.872;5.306;2023-01-25T06:18:28;103186.44;;;0.74;98.97
25238;BME280;13185;50.872;5.306;2023-01-25T06:21:23;103181.16;;;0.74;99.05
25238;BME280;13185;50.872;5.306;2023-01-25T06:23:48;103189.97;;;0.74;99.05
25238;BME280;13185;50.872;5.306;2023-01-25T06:26:14;103189.97;;;0.76;99.02
25238;BME280;13185;50.872;5.306;2023-01-25T06:28:40;103183.81;;;0.75;99.07
25238;BME280;13185;50.872;5.306;2023-01-25T06:33:35;103179.34;;;0.73;99.21
25238;BME280;13185;50.872;5.306;2023-01-25T06:36:07;103182.03;;;0.74;99.43
25238;BME280;13185;50.872;5.306;2023-01-25T06:38:33;103175.00;;;0.73;99.23
25238;BME280;13185;50.872;5.306;2023-01-25T06:41:03;103169.72;;;0.73;99.35
25238;BME280;13185;50.872;5.306;2023-01-25T06:43:30;103166.13;;;0.70;99.12
25238;BME280;13185;50.872;5.306;2023-01-25T06:46:04;103168.75;;;0.70;99.17
25238;BME280;13185;50.872;5.306;2023-01-25T06:48:30;103179.34;;;0.71;99.48
25238;BME280;13185;50.872;5.306;2023-01-25T06:51:00;103175.78;;;0.69;99.33
25238;BME280;13185;50.872;5.306;2023-01-25T06:53:27;103164.34;;;0.67;99.83
25238;BME280;13185;50.872;5.306;2023-01-25T06:56:11;103168.72;;;0.67;99.79
25238;BME280;13185;50.872;5.306;2023-01-25T06:58:37;103168.75;;;0.68;100.00
25238;BME280;13185;50.872;5.306;2023-01-25T07:01:15;103172.28;;;0.70;99.96
25238;BME280;13185;50.872;5.306;2023-01-25T07:03:51;103174.03;;;0.70;99.93
25238;BME280;13185;50.872;5.306;2023-01-25T07:06:17;103167.81;;;0.63;100.00
25238;BME280;13185;50.872;5.306;2023-01-25T07:08:43;103173.88;;;0.57;99.83
25238;BME280;13185;50.872;5.306;2023-01-25T07:11:10;103174.66;;;0.50;100.00
25238;BME280;13185;50.872;5.306;2023-01-25T07:13:38;103170.25;;;0.49;100.00
25238;BME280;13185;50.872;5.306;2023-01-25T07:16:07;103179.06;;;0.51;100.00
25238;BME280;13185;50.872;5.306;2023-01-25T07:18:33;103178.22;;;0.52;100.00
25238;BME280;13185;50.872;5.306;2023-01-25T07:21:19;103174.69;;;0.52;100.00
25238;BME280;13185;50.872;5.306;2023-01-25T07:23:46;103175.59;;;0.52;100.00
25238;BME280;13185;50.872;5.306;2023-01-25T07:26:22;103181.69;;;0.50;100.00
25238;BME280;13185;50.872;5.306;2023-01-25T07:28:49;103174.66;;;0.50;100.00
25238;BME280;13185;50.872;5.306;2023-01-25T07:31:16;103172.03;;;0.52;100.00
25238;BME280;13185;50.872;5.306;2023-01-25T07:33:42;103162.34;;;0.51;100.00
25238;BME280;13185;50.872;5.306;2023-01-25T07:36:09;103172.88;;;0.49;100.00
25238;BME280;13185;50.872;5.306;2023-01-25T07:38:35;103162.31;;;0.48;100.00
25238;BME280;13185;50.872;5.306;2023-01-25T07:41:01;103169.38;;;0.50;100.00
25238;BME280;13185;50.872;5.306;2023-01-25T07:43:27;103168.47;;;0.48;100.00
25238;BME280;13185;50.872;5.306;2023-01-25T07:46:06;103167.56;;;0.45;100.00
25238;BME280;13185;50.872;5.306;2023-01-25T07:48:32;103173.63;;;0.41;100.00
25238;BME280;13185;50.872;5.306;2023-01-25T07:50:59;103164.88;;;0.42;100.00
25238;BME280;13185;50.872;5.306;2023-01-25T07:53:41;103169.22;;;0.40;100.00
25238;BME280;13185;50.872;5.306;2023-01-25T07:56:09;103164.88;;;0.42;100.00
25238;BME280;13185;50.872;5.306;2023-01-25T07:58:35;103164.88;;;0.42;100.00
25238;BME280;13185;50.872;5.306;2023-01-25T08:01:17;103170.19;;;0.45;100.00
25238;BME280;13185;50.872;5.306;2023-01-25T08:03:44;103172.88;;;0.49;100.00
25238;BME280;13185;50.872;5.306;2023-01-25T08:06:10;103167.59;;;0.48;100.00
25238;BME280;13185;50.872;5.306;2023-01-25T08:08:42;103168.50;;;0.50;100.00
25238;BME280;13185;50.872;5.306;2023-01-25T08:11:16;103171.13;;;0.50;100.00
25238;BME280;13185;50.872;5.306;2023-01-25T08:13:42;103164.09;;;0.50;100.00
25238;BME280;13185;50.872;5.306;2023-01-25T08:16:15;103172.03;;;0.50;100.00
25238;BME280;13185;50.872;5.306;2023-01-25T08:18:41;103172.03;;;0.50;100.00
25238;BME280;13185;50.872;5.306;2023-01-25T08:21:07;103172.84;;;0.46;100.00
25238;BME280;13185;50.872;5.306;2023-01-25T08:23:32;103170.22;;;0.48;100.00
25238;BME280;13185;50.872;5.306;2023-01-25T08:26:05;103173.78;;;0.51;100.00
25238;BME280;13185;50.872;5.306;2023-01-25T08:28:31;103160.59;;;0.51;100.00
25238;BME280;13185;50.872;5.306;2023-01-25T08:31:11;103172.03;;;0.52;100.00
25238;BME280;13185;50.872;5.306;2023-01-25T08:33:38;103169.47;;;0.56;100.00
25238;BME280;13185;50.872;5.306;2023-01-25T08:36:04;103169.50;;;0.58;100.00
25238;BME280;13185;50.872;5.306;2023-01-25T08:38:30;103169.50;;;0.58;100.00
25238;BME280;13185;50.872;5.306;2023-01-25T08:41:07;103170.38;;;0.60;100.00
25238;BME280;13185;50.872;5.306;2023-01-25T08:43:33;103162.47;;;0.62;100.00
25238;BME280;13185;50.872;5.306;2023-01-25T08:45:59;103154.56;;;0.62;100.00
25238;BME280;13185;50.872;5.306;2023-01-25T08:48:25;103155.41;;;0.59;100.00
25238;BME280;13185;50.872;5.306;2023-01-25T08:50:50;103152.75;;;0.57;100.00
25238;BME280;13185;50.872;5.306;2023-01-25T08:53:16;103151.88;;;0.58;100.00
25238;BME280;13185;50.872;5.306;2023-01-25T08:55:41;103155.41;;;0.57;100.00
25238;BME280;13185;50.872;5.306;2023-01-25T08:58:15;103149.22;;;0.55;100.00
25238;BME280;13185;50.872;5.306;2023-01-25T09:00:44;103154.53;;;0.58;100.00
25238;BME280;13185;50.872;5.306;2023-01-25T09:03:10;103151.00;;;0.58;100.00
25238;BME280;13185;50.872;5.306;2023-01-25T09:05:38;103150.09;;;0.56;100.00
25238;BME280;13185;50.872;5.306;2023-01-25T09:08:06;103145.72;;;0.56;100.00
25238;BME280;13185;50.872;5.306;2023-01-25T09:10:33;103140.44;;;0.56;100.00
25238;BME280;13185;50.872;5.306;2023-01-25T09:12:59;103143.06;;;0.55;100.00
25238;BME280;13185;50.872;5.306;2023-01-25T09:15:25;103138.66;;;0.54;100.00
25238;BME280;13185;50.872;5.306;2023-01-25T09:17:54;103144.78;;;0.53;100.00
25238;BME280;13185;50.872;5.306;2023-01-25T09:20:20;103147.44;;;0.53;100.00
25238;BME280;13185;50.872;5.306;2023-01-25T09:22:46;103137.72;;;0.52;100.00
25238;BME280;13185;50.872;5.306;2023-01-25T09:25:12;103143.91;;;0.54;100.00
25238;BME280;13185;50.872;5.306;2023-01-25T09:27:37;103136.81;;;0.51;100.00
25238;BME280;13185;50.872;5.306;2023-01-25T09:30:04;103132.44;;;0.52;100.00
25238;BME280;13185;50.872;5.306;2023-01-25T09:32:30;103136.88;;;0.53;100.00
25238;BME280;13185;50.872;5.306;2023-01-25T09:34:55;103135.13;;;0.55;100.00
25238;BME280;13185;50.872;5.306;2023-01-25T09:37:21;103135.16;;;0.58;100.00
25238;BME280;13185;50.872;5.306;2023-01-25T09:39:46;103129.03;;;0.62;100.00
25238;BME280;13185;50.872;5.306;2023-01-25T09:48:09;103134.38;;;0.64;100.00
25238;BME280;13185;50.872;5.306;2023-01-25T09:56:02;103126.41;;;0.62;100.00
25238;BME280;13185;50.872;5.306;2023-01-25T09:58:34;103126.38;;;0.61;100.00
25238;BME280;13185;50.872;5.306;2023-01-25T10:03:53;103124.50;;;0.52;100.00
25238;BME280;13185;50.872;5.306;2023-01-25T10:06:21;103122.72;;;0.49;100.00
25238;BME280;13185;50.872;5.306;2023-01-25T10:11:27;103118.31;;;0.48;100.00
25238;BME280;13185;50.872;5.306;2023-01-25T10:13:54;103118.28;;;0.47;100.00
25238;BME280;13185;50.872;5.306;2023-01-25T10:21:45;103120.03;;;0.45;100.00
25238;BME280;13185;50.872;5.306;2023-01-25T10:24:33;103118.25;;;0.44;100.00
25238;BME280;13185;50.872;5.306;2023-01-25T10:30:43;103118.31;;;0.48;100.00
25238;BME280;13185;50.872;5.306;2023-01-25T10:33:17;103114.78;;;0.46;100.00
25238;BME280;13185;50.872;5.306;2023-01-25T10:35:46;103115.66;;;0.47;100.00
25238;BME280;13185;50.872;5.306;2023-01-25T10:38:27;103105.94;;;0.43;100.00
25238;BME280;13185;50.872;5.306;2023-01-25T10:40:59;103101.47;;;0.40;100.00
25238;BME280;13185;50.872;5.306;2023-01-25T10:43:29;103096.25;;;0.43;100.00
25238;BME280;13185;50.872;5.306;2023-01-25T10:45:57;103096.28;;;0.45;100.00
25238;BME280;13185;50.872;5.306;2023-01-25T10:48:28;103085.69;;;0.42;100.00
25238;BME280;13185;50.872;5.306;2023-01-25T10:50:56;103091.78;;;0.39;100.00
25238;BME280;13185;50.872;5.306;2023-01-25T10:53:33;103086.50;;;0.38;100.00
25238;BME280;13185;50.872;5.306;2023-01-25T10:58:42;103076.81;;;0.38;100.00
25238;BME280;13185;50.872;5.306;2023-01-25T11:01:13;103069.81;;;0.40;100.00
25238;BME280;13185;50.872;5.306;2023-01-25T11:03:48;103067.16;;;0.39;100.00
25238;BME280;13185;50.872;5.306;2023-01-25T11:06:14;103052.16;;;0.36;100.00
25238;BME280;13185;50.872;5.306;2023-01-25T11:08:52;103056.56;;;0.37;100.00
25238;BME280;13185;50.872;5.306;2023-01-25T11:11:24;103050.41;;;0.35;100.00
25238;BME280;13185;50.872;5.306;2023-01-25T11:13:51;103041.59;;;0.35;100.00
25238;BME280;13185;50.872;5.306;2023-01-25T11:18:55;103028.31;;;0.28;100.00
25238;BME280;13185;50.872;5.306;2023-01-25T11:21:55;103029.19;;;0.29;100.00
25238;BME280;13185;50.872;5.306;2023-01-25T11:24:16;103026.63;;;0.34;100.00
25238;BME280;13185;50.872;5.306;2023-01-25T11:26:43;103024.06;;;0.41;100.00
25238;BME280;13185;50.872;5.306;2023-01-25T11:29:15;103016.22;;;0.47;100.00
25238;BME280;13185;50.872;5.306;2023-01-25T11:31:47;103006.59;;;0.52;100.00
25238;BME280;13185;50.872;5.306;2023-01-25T11:34:27;103011.06;;;0.60;100.00
25238;BME280;13185;50.872;5.306;2023-01-25T11:42:32;102996.19;;;0.66;100.00
25238;BME280;13185;50.872;5.306;2023-01-25T11:50:12;102972.56;;;0.83;100.00
25238;BME280;13185;50.872;5.306;2023-01-25T11:55:30;102962.06;;;0.91;100.00
25238;BME280;13185;50.872;5.306;2023-01-25T11:58:10;102952.38;;;0.91;99.59
25238;BME280;13185;50.872;5.306;2023-01-25T12:00:50;102938.28;;;0.91;99.23
25238;BME280;13185;50.872;5.306;2023-01-25T12:17:46;102899.53;;;0.93;98.64
25238;BME280;13185;50.872;5.306;2023-01-25T12:28:01;102885.56;;;1.06;98.09
25238;BME280;13185;50.872;5.306;2023-01-25T12:33:33;102875.84;;;1.00;97.59
25238;BME280;13185;50.872;5.306;2023-01-25T12:41:52;102849.34;;;0.90;97.58
25238;BME280;13185;50.872;5.306;2023-01-25T12:44:45;102836.13;;;0.91;97.44
25238;BME280;13185;50.872;5.306;2023-01-25T12:52:36;102821.16;;;0.92;97.54
25238;BME280;13185;50.872;5.306;2023-01-25T12:55:05;102815.00;;;0.93;97.45
25238;BME280;13185;50.872;5.306;2023-01-25T13:11:44;102778.88;;;0.84;97.92
25238;BME280;13185;50.872;5.306;2023-01-25T13:16:46;102781.47;;;0.81;98.25
25238;BME280;13185;50.872;5.306;2023-01-25T13:21:55;102756.81;;;0.77;98.32
25238;BME280;13185;50.872;5.306;2023-01-25T13:24:26;102755.94;;;0.75;98.27
25238;BME280;13185;50.872;5.306;2023-01-25T13:31:59;102744.50;;;0.79;98.53
25238;BME280;13185;50.872;5.306;2023-01-25T13:37:22;102741.84;;;0.78;98.74
25238;BME280;13185;50.872;5.306;2023-01-25T13:42:31;102738.31;;;0.79;98.97
25238;BME280;13185;50.872;5.306;2023-01-25T13:45:11;102740.09;;;0.78;99.24
25238;BME280;13185;50.872;5.306;2023-01-25T13:47:37;102735.69;;;0.77;99.20
25238;BME280;13185;50.872;5.306;2023-01-25T13:53:20;102733.91;;;0.76;99.22
25238;BME280;13185;50.872;5.306;2023-01-25T13:55:45;102738.31;;;0.74;99.31
25238;BME280;13185;50.872;5.306;2023-01-25T14:00:58;102728.63;;;0.73;99.56
25238;BME280;13185;50.872;5.306;2023-01-25T14:03:29;102727.72;;;0.71;99.54
25238;BME280;13185;50.872;5.306;2023-01-25T14:06:05;102717.16;;;0.71;99.59
25238;BME280;13185;50.872;5.306;2023-01-25T14:08:32;102723.31;;;0.70;99.66
25238;BME280;13185;50.872;5.306;2023-01-25T14:10:58;102729.47;;;0.68;99.71
25238;BME280;13185;50.872;5.306;2023-01-25T14:13:24;102724.19;;;0.66;99.77
25238;BME280;13185;50.872;5.306;2023-01-25T14:15:58;102718.00;;;0.64;99.86
25238;BME280;13185;50.872;5.306;2023-01-25T14:18:33;102716.25;;;0.63;99.97
25238;BME280;13185;50.872;5.306;2023-01-25T14:21:19;102717.09;;;0.57;100.00
25238;BME280;13185;50.872;5.306;2023-01-25T14:24:06;102714.44;;;0.57;100.00
25238;BME280;13185;50.872;5.306;2023-01-25T14:26:32;102709.16;;;0.54;100.00
25238;BME280;13185;50.872;5.306;2023-01-25T14:29:00;102709.09;;;0.51;100.00
25238;BME280;13185;50.872;5.306;2023-01-25T14:31:31;102695.06;;;0.52;100.00
25238;BME280;13185;50.872;5.306;2023-01-25T14:33:59;102699.44;;;0.50;100.00
25238;BME280;13185;50.872;5.306;2023-01-25T14:36:30;102687.09;;;0.49;100.00
25238;BME280;13185;50.872;5.306;2023-01-25T14:38:56;102688.84;;;0.47;100.00
25238;BME280;13185;50.872;5.306;2023-01-25T14:41:33;102688.84;;;0.43;100.00
25238;BME280;13185;50.872;5.306;2023-01-25T14:44:05;102686.22;;;0.43;100.00
25238;BME280;13185;50.872;5.306;2023-01-25T14:46:36;102686.16;;;0.40;100.00
25238;BME280;13185;50.872;5.306;2023-01-25T14:51:46;102694.94;;;0.36;100.00
25238;BME280;13185;50.872;5.306;2023-01-25T14:57:05;102694.00;;;0.26;100.00
25238;BME280;13185;50.872;5.306;2023-01-25T14:59:52;102700.16;;;0.23;100.00
25238;BME280;13185;50.872;5.306;2023-01-25T15:07:47;102700.09;;;0.20;100.00
25238;BME280;13185;50.872;5.306;2023-01-25T15:15:57;102694.88;;;0.22;100.00
25238;BME280;13185;50.872;5.306;2023-01-25T15:18:43;102682.53;;;0.21;100.00
25238;BME280;13185;50.872;5.306;2023-01-25T15:23:40;102686.03;;;0.20;100.00
25238;BME280;13185;50.872;5.306;2023-01-25T15:26:33;102678.09;;;0.15;100.00
25238;BME280;13185;50.872;5.306;2023-01-25T15:29:02;102679.84;;;0.15;100.00
25238;BME280;13185;50.872;5.306;2023-01-25T15:31:34;102679.84;;;0.16;100.00
25238;BME280;13185;50.872;5.306;2023-01-25T15:34:00;102669.31;;;0.16;100.00
25238;BME280;13185;50.872;5.306;2023-01-25T15:36:28;102675.47;;;0.17;100.00
25238;BME280;13185;50.872;5.306;2023-01-25T15:38:53;102662.25;;;0.11;100.00
25238;BME280;13185;50.872;5.306;2023-01-25T15:41:19;102663.06;;;0.08;100.00